Bookmark and Share
Track history (hours):
 

Pagadder

Last reported at 2014-Apr-16 04:29 UTC. Time now 2014-Apr-16 05:30 UTC.
Position S 21°33' E 115°05'.

Length 90 m; draft 2.6 m.

Type: Other ship. MMSI: 377594000.

NotesDate/timePositionNaut miles runAvg speedWind from/ knotsBaromVisibWave heightAir tempDewpointWater temp
2014-Apr-16 04:29S 21°33' E 115°05'7 7.6
2014-Apr-16 03:33S 21°39' E 115°01'0 0.1
2014-Apr-16 02:32S 21°39' E 115°01'1 0.8
2014-Apr-16 01:34S 21°39' E 115°01'1 0.5
2014-Apr-16 00:29S 21°39' E 115°02'0 0.0
2014-Apr-15 23:32S 21°39' E 115°02'0 0.0
2014-Apr-15 22:32S 21°39' E 115°02'0 0.0
2014-Apr-15 21:29S 21°39' E 115°02'0 0.1
2014-Apr-15 20:29S 21°39' E 115°02'0 0.0
2014-Apr-15 19:26S 21°39' E 115°02'0 0.0
2014-Apr-15 18:32S 21°39' E 115°02'0 0.0
2014-Apr-15 17:29S 21°39' E 115°02'0 0.0
2014-Apr-15 16:29S 21°39' E 115°02'7 7.6
2014-Apr-15 15:34S 21°33' E 115°06'4 4.4
2014-Apr-15 14:33S 21°30' E 115°09'5 2.7
2014-Apr-15 12:34S 21°33' E 115°05'7 6.9
2014-Apr-15 11:31S 21°39' E 115°01'2 2.5
2014-Apr-15 10:34S 21°37' E 115°02'8 8.0
2014-Apr-15 09:34S 21°31' E 115°07'1 1.5
2014-Apr-15 08:34S 21°32' E 115°06'8 8.1
2014-Apr-15 07:33S 21°39' E 115°01'0 0.5
2014-Apr-15 06:34S 21°38' E 115°01'9 9.3
2014-Apr-15 05:34S 21°31' E 115°07'9 4.3
2014-Apr-15 03:34S 21°38' E 115°02'2 1.8
2014-Apr-15 02:32S 21°39' E 115°01'0 0.0
2014-Apr-15 01:32S 21°39' E 115°01'6 6.4
2014-Apr-15 00:34S 21°34' E 115°05'6 6.3
2014-Apr-14 23:33S 21°30' E 115°09'6 5.7
2014-Apr-14 22:34S 21°34' E 115°05'3 1.7
2014-Apr-14 20:34S 21°36' E 115°03'9 8.5
2014-Apr-14 19:34S 21°30' E 115°09'3 3.3
2014-Apr-14 18:34S 21°32' E 115°06'8 8.0
2014-Apr-14 17:33S 21°39' E 115°01'1 0.9
2014-Apr-14 16:29S 21°39' E 115°01'5 5.1
2014-Apr-14 15:34S 21°36' E 115°04'8 7.8
2014-Apr-14 14:32S 21°30' E 115°09'7 6.7
2014-Apr-14 13:33S 21°34' E 115°04'6 3.1
2014-Apr-14 11:32S 21°39' E 115°01'4 3.7
2014-Apr-14 10:34S 21°36' E 115°03'8 8.4
2014-Apr-14 09:33S 21°30' E 115°09'3 2.9
2014-Apr-14 08:33S 21°32' E 115°06'8 7.9
2014-Apr-14 07:34S 21°38' E 115°02'1 1.1
2014-Apr-14 06:33S 21°39' E 115°01'2 1.8
2014-Apr-14 05:33S 21°38' E 115°02'2 0.3
2014-Apr-13 22:27S 21°40' E 115°01'0 0.2
2014-Apr-13 21:33S 21°39' E 115°01'3 2.7
2014-Apr-13 20:33S 21°37' E 115°02'9 8.8
2014-Apr-13 19:33S 21°30' E 115°08'2 1.5
2014-Apr-13 18:33S 21°31' E 115°07'8 7.8
2014-Apr-13 17:33S 21°37' E 115°02'2 2.3
2014-Apr-13 16:31S 21°40' E 115°01'2 2.0
2014-Apr-13 15:33S 21°38' E 115°02'9 9.0
2014-Apr-13 14:33S 21°30' E 115°07'2 1.8
2014-Apr-13 13:33S 21°32' E 115°06'9 8.7
2014-Apr-13 12:33S 21°39' E 115°01'1 0.4
2014-Apr-13 11:24S 21°40' E 115°01'5 5.9
2014-Apr-13 10:32S 21°35' E 115°04'7 7.3
2014-Apr-13 09:33S 21°30' E 115°09'5 5.1
2014-Apr-13 08:33S 21°34' E 115°05'7 7.2
2014-Apr-13 07:32S 21°40' E 115°01'0 0.0
2014-Apr-13 06:32S 21°40' E 115°01'5 5.4
2014-Apr-13 05:34S 21°35' E 115°04'8 7.2
2014-Apr-13 04:31S 21°29' E 115°09'6 6.3
2014-Apr-13 03:33S 21°34' E 115°05'7 6.5
2014-Apr-13 02:32S 21°40' E 115°01'0 0.1
2014-Apr-13 01:33S 21°40' E 115°01'1 1.2
2014-Apr-13 00:33S 21°39' E 115°02'0 0.0
2014-Apr-12 23:30S 21°39' E 115°02'0 0.0
2014-Apr-12 22:33S 21°39' E 115°02'0 0.1
2014-Apr-12 21:30S 21°39' E 115°02'0 0.0
2014-Apr-12 20:30S 21°39' E 115°02'0 0.0
2014-Apr-12 19:33S 21°39' E 115°02'0 0.1
2014-Apr-12 18:33S 21°39' E 115°02'0 0.0
2014-Apr-12 17:33S 21°39' E 115°02'0 0.0
2014-Apr-12 16:33S 21°39' E 115°02'0 0.1
2014-Apr-12 15:30S 21°39' E 115°02'3 3.6
2014-Apr-12 14:34S 21°36' E 115°03'8 8.1
2014-Apr-12 13:33S 21°30' E 115°09'0 0.3
2014-Apr-12 12:31S 21°30' E 115°09'6 6.0
2014-Apr-12 11:33S 21°34' E 115°05'6 5.4
2014-Apr-12 10:31S 21°39' E 115°02'0 0.0
2014-Apr-12 09:31S 21°39' E 115°02'0 0.0
2014-Apr-12 08:28S 21°39' E 115°02'0 0.1
2014-Apr-12 07:28S 21°39' E 115°02'0 0.0
2014-Apr-12 06:31S 21°39' E 115°02'0 0.0
2014-Apr-12 05:31S 21°39' E 115°02'0 0.1
2014-Apr-12 04:33S 21°39' E 115°02'0 0.1
2014-Apr-12 03:31S 21°39' E 115°02'0 0.0
2014-Apr-12 02:33S 21°39' E 115°02'0 0.0
2014-Apr-12 01:31S 21°39' E 115°02'0 0.1
2014-Apr-12 00:22S 21°39' E 115°02'0 0.0
2014-Apr-11 23:31S 21°39' E 115°02'0 0.1
2014-Apr-11 22:25S 21°39' E 115°02'1 1.4
2014-Apr-11 21:31S 21°40' E 115°01'5 5.3
2014-Apr-11 20:33S 21°35' E 115°04'8 7.5
2014-Apr-11 19:33S 21°30' E 115°09'6 6.5
2014-Apr-11 18:33S 21°34' E 115°04'6 6.1
2014-Apr-11 17:31S 21°40' E 115°01'1 1.3
2014-Apr-11 16:34S 21°38' E 115°01'9 8.6
2014-Apr-11 15:33S 21°31' E 115°06'1 0.8
2014-Apr-11 14:33S 21°31' E 115°07'9 8.7
2014-Apr-11 13:33S 21°38' E 115°02'2 1.7
2014-Apr-11 12:25S 21°40' E 115°01'2 2.7
2014-Apr-11 11:33S 21°38' E 115°02'8 8.4
2014-Apr-11 10:33S 21°31' E 115°07'2 2.4
2014-Apr-11 09:33S 21°33' E 115°06'8 8.3
2014-Apr-11 08:33S 21°40' E 115°01'0 0.1
2014-Apr-11 07:29S 21°40' E 115°01'1 1.2
2014-Apr-11 06:33S 21°39' E 115°02'0 0.3
2014-Apr-11 05:29S 21°39' E 115°02'0 0.0
2014-Apr-11 04:29S 21°39' E 115°02'0 0.0
2014-Apr-11 03:26S 21°39' E 115°02'0 0.0
2014-Apr-11 02:29S 21°39' E 115°02'0 0.0
2014-Apr-11 01:32S 21°39' E 115°02'0 0.0
2014-Apr-11 00:32S 21°39' E 115°02'0 0.0
2014-Apr-10 23:32S 21°39' E 115°02'0 0.0
2014-Apr-10 22:32S 21°39' E 115°02'0 0.0
2014-Apr-10 21:32S 21°39' E 115°02'0 0.0
2014-Apr-10 20:29S 21°39' E 115°02'0 0.0
2014-Apr-10 19:33S 21°39' E 115°02'0 0.0
2014-Apr-10 18:32S 21°39' E 115°02'0 0.0
2014-Apr-10 17:29S 21°39' E 115°02'0 0.0
2014-Apr-10 16:32S 21°39' E 115°02'0 0.0
2014-Apr-10 15:33S 21°39' E 115°02'0 0.0
2014-Apr-10 14:32S 21°39' E 115°02'0 0.0
2014-Apr-10 13:32S 21°39' E 115°02'0 0.0
2014-Apr-10 12:32S 21°39' E 115°02'0 0.0
2014-Apr-10 11:29S 21°39' E 115°02'0 0.0
2014-Apr-10 10:32S 21°39' E 115°02'0 0.0
2014-Apr-10 09:33S 21°39' E 115°02'0 0.0
2014-Apr-10 08:33S 21°39' E 115°02'0 0.0
2014-Apr-10 07:29S 21°39' E 115°02'0 0.0
2014-Apr-10 06:33S 21°39' E 115°02'0 0.0
2014-Apr-10 05:32S 21°39' E 115°02'0 0.0
2014-Apr-10 04:29S 21°39' E 115°02'0 0.0
2014-Apr-10 03:32S 21°39' E 115°02'0 0.0
2014-Apr-10 02:33S 21°39' E 115°02'0 0.0
2014-Apr-10 01:32S 21°39' E 115°02'0 0.0
2014-Apr-10 00:29S 21°39' E 115°02'0 0.0
2014-Apr-09 23:32S 21°39' E 115°02'0 0.0
2014-Apr-09 22:29S 21°39' E 115°02'0 0.0
2014-Apr-09 21:32S 21°39' E 115°02'0 0.0
2014-Apr-09 20:29S 21°39' E 115°02'0 0.0
2014-Apr-09 19:26S 21°39' E 115°02'0 0.0
2014-Apr-09 18:27S 21°39' E 115°02'0 0.0
2014-Apr-09 17:29S 21°39' E 115°02'0 0.0
2014-Apr-09 16:29S 21°39' E 115°02'0 0.0
2014-Apr-09 15:32S 21°39' E 115°02'0 0.0
2014-Apr-09 14:29S 21°39' E 115°02'0 0.0
2014-Apr-09 13:20S 21°39' E 115°02'0 0.0
2014-Apr-09 12:32S 21°39' E 115°02'0 0.0
2014-Apr-09 11:29S 21°39' E 115°02'0 0.0
2014-Apr-09 10:29S 21°39' E 115°02'0 0.0
2014-Apr-09 09:29S 21°39' E 115°02'0 0.0
2014-Apr-09 08:32S 21°39' E 115°02'0 0.0
2014-Apr-09 07:32S 21°39' E 115°02'0 0.0
2014-Apr-09 06:32S 21°39' E 115°02'0 0.0
2014-Apr-09 05:32S 21°39' E 115°02'0 0.0
2014-Apr-09 04:32S 21°39' E 115°02'0 0.0
2014-Apr-09 03:32S 21°39' E 115°02'0 0.0
2014-Apr-09 02:32S 21°39' E 115°02'0 0.1
2014-Apr-09 01:32S 21°39' E 115°02'0 0.0
2014-Apr-09 00:31S 21°39' E 115°02'0 0.0
2014-Apr-08 23:31S 21°39' E 115°02'0 0.0
2014-Apr-08 22:28S 21°39' E 115°02'0 0.0
2014-Apr-08 21:31S 21°39' E 115°02'0 0.0
2014-Apr-08 20:31S 21°39' E 115°02'0 0.0
2014-Apr-08 19:31S 21°39' E 115°02'0 0.0
2014-Apr-08 18:31S 21°39' E 115°02'0 0.0
2014-Apr-08 17:31S 21°39' E 115°02'0 0.0
2014-Apr-08 16:31S 21°39' E 115°02'4 4.4
2014-Apr-08 15:33S 21°35' E 115°04'7 7.0
2014-Apr-08 14:33S 21°30' E 115°09'6 6.5
2014-Apr-08 13:33S 21°34' E 115°04'6 6.2
2014-Apr-08 12:33S 21°40' E 115°01'0 0.1
2014-Apr-08 11:33S 21°40' E 115°01'0 0.0
2014-Apr-08 10:33S 21°40' E 115°01'5 5.0
2014-Apr-08 09:33S 21°36' E 115°04'8 7.6
2014-Apr-08 08:33S 21°30' E 115°09'5 5.4
2014-Apr-08 07:33S 21°34' E 115°05'7 7.0
2014-Apr-08 06:31S 21°40' E 115°01'0 0.0
2014-Apr-08 05:31S 21°40' E 115°01'7 7.6
2014-Apr-08 04:34S 21°34' E 115°05'4 3.8
2014-Apr-08 03:33S 21°30' E 115°07'9 8.8
2014-Apr-08 02:34S 21°37' E 115°01'3 2.4
2014-Apr-08 01:31S 21°40' E 115°01'1 1.2
2014-Apr-08 00:29S 21°39' E 115°01'0 0.0
2014-Apr-07 23:32S 21°39' E 115°01'0 0.0
2014-Apr-07 22:29S 21°39' E 115°01'0 0.0
2014-Apr-07 21:23S 21°39' E 115°01'0 0.0
2014-Apr-07 20:32S 21°39' E 115°01'0 0.0
2014-Apr-07 19:26S 21°39' E 115°01'0 0.0
2014-Apr-07 17:29S 21°39' E 115°01'0 0.0
2014-Apr-07 16:32S 21°39' E 115°01'0 0.1
2014-Apr-07 15:32S 21°39' E 115°01'0 0.0
2014-Apr-07 14:32S 21°39' E 115°01'0 0.0
2014-Apr-07 13:32S 21°39' E 115°01'0 0.0
2014-Apr-07 12:32S 21°39' E 115°01'0 0.0
2014-Apr-07 11:32S 21°39' E 115°01'0 0.0
2014-Apr-07 10:32S 21°39' E 115°01'0 0.0
2014-Apr-07 09:29S 21°39' E 115°01'0 0.0
2014-Apr-07 08:29S 21°39' E 115°01'0 0.0
2014-Apr-07 07:32S 21°39' E 115°01'0 0.0
2014-Apr-07 06:26S 21°39' E 115°01'0 0.1
2014-Apr-07 05:26S 21°39' E 115°01'0 0.1
2014-Apr-07 04:26S 21°39' E 115°01'0 0.1
2014-Apr-07 03:32S 21°39' E 115°01'0 0.0
2014-Apr-07 02:26S 21°39' E 115°01'0 0.0
2014-Apr-07 01:29S 21°39' E 115°01'0 0.0
2014-Apr-07 00:32S 21°39' E 115°01'0 0.0
2014-Apr-06 23:32S 21°39' E 115°01'0 0.0
2014-Apr-06 22:32S 21°39' E 115°01'0 0.0
2014-Apr-06 21:32S 21°39' E 115°01'0 0.0
2014-Apr-06 20:23S 21°39' E 115°01'0 0.0
2014-Apr-06 19:29S 21°39' E 115°01'0 0.0
2014-Apr-06 18:32S 21°39' E 115°01'0 0.1
2014-Apr-06 17:29S 21°39' E 115°01'0 0.0
2014-Apr-06 16:32S 21°39' E 115°01'0 0.1
2014-Apr-06 15:32S 21°39' E 115°01'0 0.1
2014-Apr-06 14:29S 21°39' E 115°01'0 0.0
2014-Apr-06 13:29S 21°39' E 115°01'0 0.0
2014-Apr-06 12:32S 21°39' E 115°01'0 0.0
2014-Apr-06 11:32S 21°39' E 115°01'0 0.0
2014-Apr-06 10:32S 21°39' E 115°01'0 0.0
2014-Apr-06 09:32S 21°39' E 115°01'0 0.0
2014-Apr-06 08:32S 21°39' E 115°01'0 0.0
2014-Apr-06 07:29S 21°39' E 115°01'0 0.0
2014-Apr-06 06:32S 21°39' E 115°01'0 0.0
2014-Apr-06 05:20S 21°39' E 115°01'  

Dump ship's entire track history

sailing weather and tide predictions

Pagadder — J8B3995 — position and weather